createdAt,value
2019-05-22T00:00:24.722Z,99.24
2019-05-22T00:01:24.715Z,99.24
2019-05-22T00:02:24.706Z,98.83
2019-05-22T00:03:27.910Z,98.98
2019-05-22T00:04:24.681Z,99.39
2019-05-22T00:05:24.668Z,99.85
2019-05-22T00:06:24.661Z,99.59
2019-05-22T00:07:24.649Z,99.39
2019-05-22T00:08:24.686Z,99.54
2019-05-22T00:09:24.654Z,99.54
2019-05-22T00:10:24.612Z,99.69
2019-05-22T00:11:24.612Z,99.75
2019-05-22T00:12:24.615Z,99.79
2019-05-22T00:13:24.574Z,99.79
2019-05-22T00:14:24.592Z,99.79
2019-05-22T00:15:24.570Z,99.90
2019-05-22T00:16:24.543Z,99.29
2019-05-22T00:17:24.529Z,99.39
2019-05-22T00:18:24.524Z,99.29
2019-05-22T00:19:24.533Z,99.08
2019-05-22T00:20:24.519Z,99.18
2019-05-22T00:21:24.506Z,99.44
2019-05-22T00:22:24.474Z,98.77
2019-05-22T00:23:24.467Z,98.98
2019-05-22T00:24:26.412Z,98.68
2019-05-22T00:25:24.454Z,98.57
2019-05-22T00:26:24.427Z,98.57
2019-05-22T00:27:24.486Z,98.68
2019-05-22T00:28:24.407Z,98.88
2019-05-22T00:29:26.570Z,98.36
2019-05-22T00:30:24.440Z,98.36
2019-05-22T00:31:24.380Z,97.96
2019-05-22T00:32:24.368Z,97.55
2019-05-22T00:33:24.357Z,98.16
2019-05-22T00:34:24.392Z,97.34
2019-05-22T00:35:24.585Z,97.65
2019-05-22T00:36:24.363Z,96.94
2019-05-22T00:37:24.383Z,97.14
2019-05-22T00:38:24.292Z,96.63
2019-05-22T00:39:24.343Z,96.84
2019-05-22T00:40:24.270Z,96.84
2019-05-22T00:41:24.263Z,97.24
2019-05-22T00:42:24.306Z,96.53
2019-05-22T00:43:24.244Z,96.33
2019-05-22T00:44:24.245Z,97.04
2019-05-22T00:45:24.210Z,96.12
2019-05-22T00:46:24.266Z,96.43
2019-05-22T00:47:24.198Z,96.22
2019-05-22T00:48:24.184Z,96.63
2019-05-22T00:49:24.209Z,96.53
2019-05-22T00:50:24.152Z,96.53
2019-05-22T00:51:24.153Z,95.92
2019-05-22T00:52:24.191Z,96.33
2019-05-22T00:53:24.127Z,95.81
2019-05-22T00:54:24.148Z,96.22
2019-05-22T00:55:24.140Z,95.92
2019-05-22T00:56:24.137Z,95.81
2019-05-22T00:57:24.085Z,94.90
2019-05-22T00:58:24.064Z,96.22
2019-05-22T00:59:24.088Z,95.81
2019-05-22T01:00:24.056Z,95.72
2019-05-22T01:01:24.040Z,95.10
2019-05-22T01:02:24.024Z,95.20
2019-05-22T01:03:24.032Z,95.31
2019-05-22T01:04:24.028Z,95.51
2019-05-22T01:05:24.052Z,96.02
2019-05-22T01:06:23.978Z,95.92
2019-05-22T01:07:23.969Z,95.31
2019-05-22T01:08:23.963Z,95.72
2019-05-22T01:09:23.940Z,96.02
2019-05-22T01:10:25.287Z,96.22
2019-05-22T01:11:23.925Z,95.92
2019-05-22T01:12:24.172Z,95.61
2019-05-22T01:13:23.924Z,96.12
2019-05-22T01:14:25.408Z,96.12
2019-05-22T01:15:23.903Z,96.12
2019-05-22T01:16:23.865Z,95.81
2019-05-22T01:17:23.882Z,95.81
2019-05-22T01:18:23.841Z,95.72
2019-05-22T01:19:23.840Z,95.92
2019-05-22T01:20:23.886Z,95.61
2019-05-22T01:21:23.875Z,96.43
2019-05-22T01:22:23.793Z,96.53
2019-05-22T01:23:23.787Z,96.43
2019-05-22T01:24:23.778Z,96.88
2019-05-22T01:25:23.795Z,96.33
2019-05-22T01:26:23.794Z,97.19
2019-05-22T01:27:23.735Z,96.98
2019-05-22T01:28:23.725Z,96.73
2019-05-22T01:29:23.761Z,96.37
2019-05-22T01:30:25.294Z,97.19
2019-05-22T01:31:25.370Z,97.08
2019-05-22T01:32:23.685Z,96.63
2019-05-22T01:33:23.677Z,96.88
2019-05-22T01:34:25.373Z,96.78
2019-05-22T01:35:23.658Z,96.88
2019-05-22T01:36:23.640Z,97.19
2019-05-22T01:37:23.676Z,97.19
2019-05-22T01:38:25.290Z,96.88
2019-05-22T01:39:25.323Z,96.68
2019-05-22T01:40:24.657Z,96.68
2019-05-22T01:41:23.593Z,96.68
2019-05-22T01:42:25.295Z,96.58
2019-05-22T01:43:23.564Z,96.88
2019-05-22T01:44:23.555Z,97.13
2019-05-22T01:45:23.601Z,97.13
2019-05-22T01:46:23.533Z,96.92
2019-05-22T01:47:25.326Z,96.92
2019-05-22T01:48:23.510Z,96.92
2019-05-22T01:49:23.493Z,96.92
2019-05-22T01:50:23.490Z,97.03
2019-05-22T01:51:25.285Z,96.42
2019-05-22T01:52:23.572Z,96.21
2019-05-22T01:53:23.443Z,96.51
2019-05-22T01:54:23.446Z,96.11
2019-05-22T01:55:25.294Z,96.62
2019-05-22T01:56:23.445Z,96.42
2019-05-22T01:57:25.313Z,96.51
2019-05-22T01:58:23.410Z,96.01
2019-05-22T01:59:23.378Z,96.11
2019-05-22T02:00:25.284Z,96.62
2019-05-22T02:01:23.370Z,96.51
2019-05-22T02:02:23.351Z,96.72
2019-05-22T02:03:23.337Z,96.92
2019-05-22T02:04:23.347Z,96.62
2019-05-22T02:05:23.316Z,96.62
2019-05-22T02:06:23.362Z,97.03
2019-05-22T02:07:23.330Z,96.42
2019-05-22T02:08:23.298Z,97.13
2019-05-22T02:09:23.286Z,96.21
2019-05-22T02:10:24.341Z,96.42
2019-05-22T02:11:23.253Z,96.72
2019-05-22T02:12:23.232Z,97.24
2019-05-22T02:13:23.225Z,97.49
2019-05-22T02:14:23.233Z,96.87
2019-05-22T02:15:23.209Z,96.72
2019-05-22T02:16:23.207Z,97.08
2019-05-22T02:17:23.184Z,96.87
2019-05-22T02:18:23.168Z,97.17
2019-05-22T02:19:23.228Z,97.28
2019-05-22T02:20:23.166Z,96.51
2019-05-22T02:21:23.136Z,96.97
2019-05-22T02:22:23.186Z,96.83
2019-05-22T02:23:23.107Z,96.72
2019-05-22T02:24:23.122Z,97.08
2019-05-22T02:25:23.085Z,97.24
2019-05-22T02:26:23.069Z,97.49
2019-05-22T02:27:23.084Z,97.08
2019-05-22T02:28:23.055Z,96.97
2019-05-22T02:29:23.075Z,97.38
2019-05-22T02:30:23.032Z,96.97
2019-05-22T02:31:23.045Z,96.97
2019-05-22T02:32:23.016Z,97.08
2019-05-22T02:33:23.043Z,97.08
2019-05-22T02:34:23.032Z,97.08
2019-05-22T02:35:22.988Z,97.58
2019-05-22T02:36:22.981Z,97.17
2019-05-22T02:37:22.955Z,96.77
2019-05-22T02:38:22.941Z,97.08
2019-05-22T02:39:22.979Z,96.87
2019-05-22T02:40:22.919Z,96.67
2019-05-22T02:41:22.908Z,96.77
2019-05-22T02:42:22.937Z,97.28
2019-05-22T02:43:22.911Z,96.97
2019-05-22T02:44:22.909Z,97.58
2019-05-22T02:45:22.862Z,97.58
2019-05-22T02:46:22.851Z,97.89
2019-05-22T02:47:22.846Z,97.79
2019-05-22T02:48:22.828Z,97.58
2019-05-22T02:49:22.869Z,97.99
2019-05-22T02:50:22.808Z,97.49
2019-05-22T02:51:22.829Z,97.69
2019-05-22T02:52:22.778Z,97.69
2019-05-22T02:53:22.851Z,97.89
2019-05-22T02:54:22.807Z,97.79
2019-05-22T02:55:22.765Z,97.58
2019-05-22T02:56:22.733Z,97.58
2019-05-22T02:57:22.738Z,97.69
2019-05-22T02:58:22.766Z,97.89
2019-05-22T02:59:22.742Z,97.28
2019-05-22T03:00:22.692Z,97.58
2019-05-22T03:01:22.721Z,97.99
2019-05-22T03:02:22.674Z,97.69
2019-05-22T03:03:22.650Z,97.89
2019-05-22T03:04:22.669Z,97.69
2019-05-22T03:05:22.633Z,97.69
2019-05-22T03:06:22.654Z,97.69
2019-05-22T03:07:22.615Z,97.89
2019-05-22T03:08:22.591Z,97.69
2019-05-22T03:09:22.630Z,97.79
2019-05-22T03:10:22.575Z,97.79
2019-05-22T03:11:22.568Z,97.89
2019-05-22T03:12:22.562Z,97.79
2019-05-22T03:13:22.533Z,97.89
2019-05-22T03:14:22.568Z,97.69
2019-05-22T03:15:22.530Z,97.58
2019-05-22T03:16:22.514Z,97.69
2019-05-22T03:17:22.495Z,97.58
2019-05-22T03:18:22.494Z,97.89
2019-05-22T03:19:24.397Z,97.99
2019-05-22T03:20:22.467Z,97.58
2019-05-22T03:21:22.454Z,97.89
2019-05-22T03:22:22.497Z,97.79
2019-05-22T03:23:22.461Z,97.79
2019-05-22T03:24:22.433Z,97.49
2019-05-22T03:25:22.402Z,98.30
2019-05-22T03:26:22.412Z,97.79
2019-05-22T03:27:22.404Z,98.30
2019-05-22T03:28:22.932Z,98.75
2019-05-22T03:29:22.382Z,98.55
2019-05-22T03:30:22.580Z,98.86
2019-05-22T03:31:22.346Z,98.96
2019-05-22T03:32:22.322Z,99.57
2019-05-22T03:33:22.365Z,99.27
2019-05-22T03:34:22.333Z,99.68
2019-05-22T03:35:22.349Z,99.99
2019-05-22T03:36:22.356Z,99.99
2019-05-22T03:37:22.308Z,99.99
2019-05-22T03:38:22.289Z,99.99
2019-05-22T03:39:22.296Z,99.99
2019-05-22T03:40:23.898Z,99.99
2019-05-22T03:41:22.291Z,99.99
2019-05-22T03:42:22.246Z,99.99
2019-05-22T03:43:22.222Z,99.99
2019-05-22T03:44:22.236Z,99.99
2019-05-22T03:45:22.194Z,99.99
2019-05-22T03:46:22.198Z,99.99
2019-05-22T03:47:22.196Z,99.99
2019-05-22T03:48:22.158Z,99.99
2019-05-22T03:49:31.013Z,99.99
2019-05-22T03:50:23.670Z,99.99
2019-05-22T03:51:22.161Z,99.99
2019-05-22T03:52:22.165Z,99.99
2019-05-22T03:53:23.222Z,99.99
2019-05-22T03:54:22.083Z,99.99
2019-05-22T03:55:22.101Z,99.99
2019-05-22T03:56:22.102Z,99.99
2019-05-22T03:57:22.936Z,99.99
2019-05-22T03:58:22.050Z,99.99
2019-05-22T03:59:22.411Z,99.99
2019-05-22T04:00:22.067Z,99.99
2019-05-22T04:01:22.003Z,99.99
2019-05-22T04:02:22.149Z,99.99
2019-05-22T04:03:21.976Z,99.99
2019-05-22T04:04:21.964Z,99.99
2019-05-22T04:05:22.292Z,99.99
2019-05-22T04:06:21.956Z,99.99
2019-05-22T04:07:21.938Z,99.99
2019-05-22T04:08:21.937Z,99.99
2019-05-22T04:09:21.935Z,99.99
2019-05-22T04:10:21.948Z,99.99
2019-05-22T04:11:21.937Z,99.99
2019-05-22T04:12:22.542Z,99.99
2019-05-22T04:13:22.053Z,99.99
2019-05-22T04:14:21.911Z,99.99
2019-05-22T04:15:22.699Z,99.99
2019-05-22T04:16:21.854Z,99.99
2019-05-22T04:17:22.419Z,99.99
2019-05-22T04:18:22.976Z,99.99
2019-05-22T04:19:21.826Z,99.99
2019-05-22T04:20:21.823Z,99.99
2019-05-22T04:21:21.784Z,99.99
2019-05-22T04:22:21.782Z,99.99
2019-05-22T04:23:21.750Z,99.99
2019-05-22T04:24:21.742Z,99.99
2019-05-22T04:25:21.762Z,99.99
2019-05-22T04:26:21.727Z,99.99
2019-05-22T04:27:21.743Z,99.99
2019-05-22T04:28:21.707Z,99.99
2019-05-22T04:29:23.466Z,99.99
2019-05-22T04:30:23.470Z,99.99
2019-05-22T04:31:21.673Z,99.91
2019-05-22T04:32:21.656Z,99.99
2019-05-22T04:33:21.663Z,99.99
2019-05-22T04:34:21.663Z,99.99
2019-05-22T04:35:21.772Z,99.99
2019-05-22T04:36:21.620Z,99.77
2019-05-22T04:37:21.610Z,99.56
2019-05-22T04:38:21.594Z,99.99
2019-05-22T04:39:21.637Z,99.66
2019-05-22T04:40:21.651Z,99.87
2019-05-22T04:41:21.571Z,99.66
2019-05-22T04:42:21.569Z,99.56
2019-05-22T04:43:21.549Z,99.56
2019-05-22T04:44:21.549Z,99.72
2019-05-22T04:45:21.572Z,99.56
2019-05-22T04:46:21.507Z,99.66
2019-05-22T04:47:21.568Z,99.36
2019-05-22T04:48:21.491Z,99.26
2019-05-22T04:49:21.487Z,99.66
2019-05-22T04:50:21.492Z,99.56
2019-05-22T04:51:21.462Z,99.56
2019-05-22T04:52:21.434Z,99.56
2019-05-22T04:53:21.465Z,99.66
2019-05-22T04:54:21.424Z,98.74
2019-05-22T04:55:21.526Z,98.95
2019-05-22T04:56:21.410Z,99.15
2019-05-22T04:57:21.386Z,99.05
2019-05-22T04:58:21.371Z,98.54
2019-05-22T04:59:21.364Z,98.95
2019-05-22T05:00:21.406Z,98.65
2019-05-22T05:01:21.460Z,98.85
2019-05-22T05:02:21.355Z,98.65
2019-05-22T05:03:21.342Z,98.65
2019-05-22T05:04:21.317Z,98.65
2019-05-22T05:05:21.326Z,98.74
2019-05-22T05:06:21.353Z,98.54
2019-05-22T05:07:21.321Z,98.03
2019-05-22T05:08:21.260Z,97.92
2019-05-22T05:09:21.279Z,97.62
2019-05-22T05:10:22.943Z,97.82
2019-05-22T05:11:21.235Z,98.19
2019-05-22T05:12:21.378Z,97.92
2019-05-22T05:13:21.224Z,97.78
2019-05-22T05:14:26.152Z,97.98
2019-05-22T05:15:21.214Z,98.03
2019-05-22T05:16:21.179Z,97.72
2019-05-22T05:17:21.170Z,97.78
2019-05-22T05:18:21.180Z,97.16
2019-05-22T05:19:22.142Z,96.80
2019-05-22T05:20:22.802Z,97.62
2019-05-22T05:21:21.195Z,97.11
2019-05-22T05:22:21.130Z,97.16
2019-05-22T05:23:21.103Z,96.86
2019-05-22T05:24:21.095Z,96.86
2019-05-22T05:25:21.763Z,96.55
2019-05-22T05:26:21.919Z,96.86
2019-05-22T05:27:21.918Z,96.75
2019-05-22T05:28:21.061Z,96.66
2019-05-22T05:29:21.034Z,96.39
2019-05-22T05:30:21.054Z,96.91
2019-05-22T05:31:21.004Z,96.75
2019-05-22T05:32:21.113Z,96.34
2019-05-22T05:33:21.025Z,96.75
2019-05-22T05:34:21.034Z,96.75
2019-05-22T05:35:20.998Z,96.55
2019-05-22T05:36:20.964Z,95.84
2019-05-22T05:37:20.981Z,96.04
2019-05-22T05:38:20.945Z,96.75
2019-05-22T05:39:20.916Z,96.45
2019-05-22T05:40:20.978Z,96.75
2019-05-22T05:41:20.909Z,96.59
2019-05-22T05:42:20.894Z,95.98
2019-05-22T05:43:20.884Z,96.66
2019-05-22T05:44:20.868Z,96.55
2019-05-22T05:45:20.894Z,96.34
2019-05-22T05:46:20.963Z,96.45
2019-05-22T05:47:20.829Z,95.63
2019-05-22T05:48:20.906Z,96.25
2019-05-22T05:49:20.864Z,96.55
2019-05-22T05:50:20.801Z,96.25
2019-05-22T05:51:20.808Z,96.34
2019-05-22T05:52:20.766Z,96.34
2019-05-22T05:53:20.808Z,95.12
2019-05-22T05:54:20.762Z,95.02
2019-05-22T05:55:20.739Z,95.22
2019-05-22T05:56:20.801Z,95.63
2019-05-22T05:57:20.727Z,95.02
2019-05-22T05:58:20.831Z,94.81
2019-05-22T05:59:22.886Z,94.51
2019-05-22T06:00:20.686Z,95.12
2019-05-22T06:01:21.000Z,93.95
2019-05-22T06:02:20.694Z,94.67
2019-05-22T06:03:20.675Z,94.06
2019-05-22T06:04:33.617Z,94.20
2019-05-22T06:05:21.620Z,94.20
2019-05-22T06:06:20.636Z,94.15
2019-05-22T06:07:20.660Z,93.54
2019-05-22T06:08:20.602Z,93.13
2019-05-22T06:09:20.604Z,92.72
2019-05-22T06:10:20.583Z,92.72
2019-05-22T06:11:21.208Z,93.24
2019-05-22T06:12:20.546Z,92.32
2019-05-22T06:13:20.539Z,92.56
2019-05-22T06:14:20.558Z,92.93
2019-05-22T06:15:20.691Z,91.54
2019-05-22T06:16:20.503Z,92.42
2019-05-22T06:17:20.554Z,92.72
2019-05-22T06:18:20.490Z,92.21
2019-05-22T06:19:20.480Z,92.01
2019-05-22T06:20:20.472Z,92.32
2019-05-22T06:21:20.559Z,91.50
2019-05-22T06:22:20.485Z,92.52
2019-05-22T06:23:20.425Z,92.83
2019-05-22T06:24:20.408Z,92.17
2019-05-22T06:25:20.408Z,91.60
2019-05-22T06:26:20.400Z,92.58
2019-05-22T06:27:20.416Z,91.46
2019-05-22T06:28:20.364Z,90.99
2019-05-22T06:29:22.187Z,91.80
2019-05-22T06:30:20.373Z,92.01
2019-05-22T06:31:20.380Z,91.39
2019-05-22T06:32:21.200Z,91.46
2019-05-22T06:33:20.345Z,91.80
2019-05-22T06:34:20.294Z,92.17
2019-05-22T06:35:20.353Z,90.78
2019-05-22T06:36:20.273Z,90.37
2019-05-22T06:37:20.290Z,91.35
2019-05-22T06:38:21.208Z,90.47
2019-05-22T06:39:20.266Z,90.43
2019-05-22T06:40:20.244Z,90.58
2019-05-22T06:41:20.224Z,91.56
2019-05-22T06:42:20.266Z,90.74
2019-05-22T06:43:27.718Z,91.76
2019-05-22T06:44:20.214Z,90.94
2019-05-22T06:45:20.186Z,91.86
2019-05-22T06:46:20.217Z,90.53
2019-05-22T06:47:20.162Z,90.53
2019-05-22T06:48:20.156Z,90.84
2019-05-22T06:49:20.172Z,90.74
2019-05-22T06:50:20.175Z,89.88
2019-05-22T06:51:20.142Z,89.92
2019-05-22T06:52:20.134Z,90.12
2019-05-22T06:53:20.082Z,89.82
2019-05-22T06:54:20.130Z,89.72
2019-05-22T06:55:20.066Z,89.51
2019-05-22T06:56:23.559Z,89.82
2019-05-22T06:57:20.046Z,89.58
2019-05-22T06:58:20.137Z,89.17
2019-05-22T06:59:20.026Z,88.90
2019-05-22T07:00:21.386Z,88.79
2019-05-22T07:01:20.010Z,89.11
2019-05-22T07:02:19.990Z,88.79
2019-05-22T07:03:19.978Z,89.00
2019-05-22T07:04:19.962Z,89.20
2019-05-22T07:05:19.998Z,88.79
2019-05-22T07:06:20.194Z,88.18
2019-05-22T07:07:19.947Z,88.70
2019-05-22T07:08:19.928Z,88.14
2019-05-22T07:09:19.913Z,89.11
2019-05-22T07:10:20.770Z,89.00
2019-05-22T07:11:19.903Z,88.39
2019-05-22T07:12:19.883Z,89.41
2019-05-22T07:13:19.940Z,88.79
2019-05-22T07:14:19.890Z,89.17
2019-05-22T07:15:19.898Z,88.65
2019-05-22T07:16:19.846Z,88.76
2019-05-22T07:17:19.887Z,88.35
2019-05-22T07:18:19.867Z,88.04
2019-05-22T07:19:19.832Z,88.24
2019-05-22T07:20:19.812Z,88.51
2019-05-22T07:21:33.131Z,87.59
2019-05-22T07:22:20.766Z,86.16
2019-05-22T07:23:19.788Z,86.67
2019-05-22T07:24:19.771Z,86.88
2019-05-22T07:25:19.747Z,86.67
2019-05-22T07:26:20.908Z,86.67
2019-05-22T07:27:19.718Z,86.47
2019-05-22T07:28:19.694Z,85.75
2019-05-22T07:29:19.702Z,86.06
2019-05-22T07:30:19.678Z,86.16
2019-05-22T07:31:20.296Z,86.36
2019-05-22T07:32:20.134Z,86.16
2019-05-22T07:33:20.268Z,86.71
2019-05-22T07:34:19.782Z,86.67
2019-05-22T07:35:19.862Z,86.77
2019-05-22T07:36:19.948Z,86.63
2019-05-22T07:37:20.033Z,86.12
2019-05-22T07:38:19.737Z,86.53
2019-05-22T07:39:19.848Z,85.61
2019-05-22T07:40:20.282Z,86.53
2019-05-22T07:41:21.932Z,86.83
2019-05-22T07:42:19.767Z,86.43
2019-05-22T07:43:19.859Z,86.22
2019-05-22T07:44:19.854Z,86.67
2019-05-22T07:45:19.858Z,86.02
2019-05-22T07:46:19.962Z,87.08
2019-05-22T07:47:19.882Z,86.73
2019-05-22T07:48:22.026Z,87.04
2019-05-22T07:49:19.622Z,85.57
2019-05-22T07:50:20.064Z,85.51
2019-05-22T07:51:21.251Z,85.86
2019-05-22T07:52:19.500Z,86.33
2019-05-22T07:53:19.647Z,85.41
2019-05-22T07:54:19.950Z,85.75
2019-05-22T07:55:19.637Z,86.16
2019-05-22T07:56:19.454Z,85.65
2019-05-22T07:57:19.449Z,85.92
2019-05-22T07:58:19.772Z,85.57
2019-05-22T07:59:19.674Z,85.68
2019-05-22T08:00:19.479Z,85.47
2019-05-22T08:01:21.069Z,84.25
2019-05-22T08:02:19.422Z,84.66
2019-05-22T08:03:19.497Z,84.34
2019-05-22T08:04:19.614Z,84.28
2019-05-22T08:05:19.475Z,84.49
2019-05-22T08:06:19.363Z,84.83
2019-05-22T08:07:19.499Z,86.12
2019-05-22T08:08:19.709Z,85.88
2019-05-22T08:09:19.646Z,83.94
2019-05-22T08:10:19.291Z,83.78
2019-05-22T08:11:19.535Z,84.39
2019-05-22T08:12:19.504Z,83.98
2019-05-22T08:13:19.592Z,84.14
2019-05-22T08:14:19.463Z,83.87
2019-05-22T08:15:19.363Z,83.87
2019-05-22T08:16:19.951Z,82.65
2019-05-22T08:17:19.270Z,83.67
2019-05-22T08:18:19.585Z,84.14
2019-05-22T08:19:19.167Z,83.02
2019-05-22T08:20:20.320Z,82.51
2019-05-22T08:21:23.233Z,83.98
2019-05-22T08:22:19.338Z,83.84
2019-05-22T08:23:19.166Z,83.53
2019-05-22T08:24:19.428Z,83.59
2019-05-22T08:25:19.256Z,82.94
2019-05-22T08:26:20.984Z,82.13
2019-05-22T08:27:19.207Z,82.47
2019-05-22T08:28:19.119Z,82.47
2019-05-22T08:29:19.040Z,81.82
2019-05-22T08:30:19.034Z,80.23
2019-05-22T08:31:21.375Z,81.96
2019-05-22T08:32:19.264Z,81.56
2019-05-22T08:33:19.040Z,81.27
2019-05-22T08:34:18.970Z,80.70
2019-05-22T08:35:18.970Z,80.91
2019-05-22T08:36:18.994Z,81.01
2019-05-22T08:37:18.972Z,81.01
2019-05-22T08:38:18.915Z,80.19
2019-05-22T08:39:18.911Z,80.29
2019-05-22T08:40:18.941Z,81.82
2019-05-22T08:41:19.214Z,81.31
2019-05-22T08:42:18.920Z,81.82
2019-05-22T08:43:18.883Z,81.76
2019-05-22T08:44:18.968Z,80.98
2019-05-22T08:45:18.878Z,81.70
2019-05-22T08:46:18.872Z,81.56
2019-05-22T08:47:19.049Z,81.04
2019-05-22T08:48:18.837Z,80.84
2019-05-22T08:49:18.792Z,81.04
2019-05-22T08:50:18.783Z,80.43
2019-05-22T08:51:19.776Z,80.43
2019-05-22T08:52:23.619Z,80.43
2019-05-22T08:53:19.759Z,79.38
2019-05-22T08:54:19.458Z,80.13
2019-05-22T08:55:18.742Z,80.29
2019-05-22T08:56:18.745Z,79.54
2019-05-22T08:57:18.723Z,80.19
2019-05-22T08:58:18.741Z,79.95
2019-05-22T08:59:20.074Z,79.00
2019-05-22T09:00:18.670Z,79.20
2019-05-22T09:01:19.259Z,76.92
2019-05-22T09:02:18.676Z,78.35
2019-05-22T09:03:18.642Z,78.35
2019-05-22T09:04:18.624Z,77.13
2019-05-22T09:05:21.320Z,77.03
2019-05-22T09:06:18.721Z,76.48
2019-05-22T09:07:18.630Z,73.63
2019-05-22T09:08:18.607Z,71.57
2019-05-22T09:09:18.589Z,71.70
2019-05-22T09:10:18.864Z,71.06
2019-05-22T09:11:18.636Z,72.41
2019-05-22T09:12:18.534Z,73.77
2019-05-22T09:13:18.596Z,73.26
2019-05-22T09:14:18.552Z,73.53
2019-05-22T09:15:18.535Z,73.63
2019-05-22T09:16:19.331Z,74.82
2019-05-22T09:17:18.533Z,75.16
2019-05-22T09:18:18.500Z,76.18
2019-05-22T09:19:18.457Z,76.01
2019-05-22T09:20:18.442Z,76.62
2019-05-22T09:21:18.471Z,73.50
2019-05-22T09:22:18.502Z,70.55
2019-05-22T09:23:18.470Z,72.41
2019-05-22T09:24:18.796Z,69.64
2019-05-22T09:25:18.397Z,68.23
2019-05-22T09:26:18.468Z,67.08
2019-05-22T09:27:18.371Z,66.97
2019-05-22T09:28:18.394Z,67.92
2019-05-22T09:29:18.405Z,64.72
2019-05-22T09:30:18.352Z,64.56
2019-05-22T09:31:18.328Z,60.48
2019-05-22T09:32:18.363Z,59.37
2019-05-22T09:33:18.298Z,61.25
2019-05-22T09:34:18.318Z,64.61
2019-05-22T09:35:18.304Z,67.24
2019-05-22T09:36:18.286Z,66.38
2019-05-22T09:37:19.245Z,64.72
2019-05-22T09:38:18.267Z,63.54
2019-05-22T09:39:18.358Z,62.95
2019-05-22T09:40:18.238Z,61.13
2019-05-22T09:41:18.220Z,60.77
2019-05-22T09:42:18.257Z,58.78
2019-05-22T09:43:18.216Z,55.41
2019-05-22T09:44:18.182Z,55.91
2019-05-22T09:45:18.228Z,56.48
2019-05-22T09:46:18.158Z,62.84
2019-05-22T09:47:18.786Z,64.28
2019-05-22T09:48:18.162Z,64.31
2019-05-22T09:49:18.136Z,63.67
2019-05-22T09:50:18.132Z,64.95
2019-05-22T09:51:18.256Z,67.38
2019-05-22T09:52:18.826Z,67.75
2019-05-22T09:53:18.186Z,63.99
2019-05-22T09:54:18.081Z,60.66
2019-05-22T09:55:18.074Z,62.47
2019-05-22T09:56:18.057Z,62.54
2019-05-22T09:57:18.782Z,57.81
2019-05-22T09:58:18.031Z,54.85
2019-05-22T09:59:18.041Z,52.34
2019-05-22T10:00:18.011Z,52.24
2019-05-22T10:01:18.015Z,52.59
2019-05-22T10:02:18.052Z,50.92
2019-05-22T10:03:17.982Z,53.45
2019-05-22T10:04:17.962Z,52.64
2019-05-22T10:05:17.965Z,53.27
2019-05-22T10:06:21.071Z,53.25
2019-05-22T10:07:17.973Z,55.21
2019-05-22T10:08:17.932Z,56.67
2019-05-22T10:09:17.966Z,54.80
2019-05-22T10:10:17.983Z,55.13
2019-05-22T10:11:17.937Z,54.75
2019-05-22T10:12:17.897Z,57.64
2019-05-22T10:13:17.943Z,61.05
2019-05-22T10:14:17.864Z,58.58
2019-05-22T10:15:18.093Z,59.34
2019-05-22T10:16:17.865Z,61.36
2019-05-22T10:17:17.892Z,61.62
2019-05-22T10:18:17.834Z,59.42
2019-05-22T10:19:17.842Z,59.36
2019-05-22T10:20:17.853Z,60.35
2019-05-22T10:21:17.838Z,58.82
2019-05-22T10:22:17.938Z,58.22
2019-05-22T10:23:17.817Z,59.18
2019-05-22T10:24:17.835Z,57.78
2019-05-22T10:25:17.802Z,59.08
2019-05-22T10:26:17.727Z,60.32
2019-05-22T10:27:17.781Z,60.93
2019-05-22T10:28:17.739Z,61.23
2019-05-22T10:29:17.755Z,61.51
2019-05-22T10:30:17.690Z,55.69
2019-05-22T10:31:18.007Z,58.82
2019-05-22T10:32:17.710Z,57.68
2019-05-22T10:33:17.675Z,54.93
2019-05-22T10:34:17.644Z,56.29
2019-05-22T10:35:17.655Z,53.40
2019-05-22T10:36:17.618Z,53.30
2019-05-22T10:37:17.639Z,50.69
2019-05-22T10:38:17.589Z,49.49
2019-05-22T10:39:17.595Z,48.99
2019-05-22T10:40:17.617Z,49.16
2019-05-22T10:41:17.969Z,50.66
2019-05-22T10:42:19.820Z,52.17
2019-05-22T10:43:17.552Z,57.15
2019-05-22T10:44:17.556Z,55.11
2019-05-22T10:45:17.660Z,54.08
2019-05-22T10:46:17.629Z,54.33
2019-05-22T10:47:20.537Z,55.24
2019-05-22T10:48:17.492Z,56.60
2019-05-22T10:49:17.477Z,54.28
2019-05-22T10:50:18.414Z,53.09
2019-05-22T10:51:17.497Z,49.88
2019-05-22T10:52:17.487Z,52.34
2019-05-22T10:53:32.248Z,50.66
2019-05-22T10:54:18.430Z,53.30
2019-05-22T10:55:17.448Z,56.09
2019-05-22T10:56:17.474Z,55.00
2019-05-22T10:57:17.522Z,52.87
2019-05-22T10:58:17.551Z,52.92
2019-05-22T10:59:17.399Z,52.22
2019-05-22T11:00:17.392Z,56.37
2019-05-22T11:01:17.365Z,57.89
2019-05-22T11:02:17.466Z,56.85
2019-05-22T11:03:17.552Z,54.83
2019-05-22T11:04:19.428Z,53.80
2019-05-22T11:05:17.311Z,54.00
2019-05-22T11:06:17.305Z,51.81
2019-05-22T11:07:18.296Z,51.76
2019-05-22T11:08:17.274Z,52.04
2019-05-22T11:09:17.286Z,52.49
2019-05-22T11:10:17.287Z,55.34
2019-05-22T11:11:17.255Z,57.48
2019-05-22T11:12:17.272Z,53.95
2019-05-22T11:13:17.225Z,53.32
2019-05-22T11:14:17.223Z,50.56
2019-05-22T11:15:17.392Z,52.19
2019-05-22T11:16:17.190Z,52.59
2019-05-22T11:17:17.222Z,52.17
2019-05-22T11:18:17.179Z,50.41
2019-05-22T11:19:17.285Z,52.17
2019-05-22T11:20:17.151Z,50.44
2019-05-22T11:21:17.141Z,50.56
2019-05-22T11:22:17.153Z,48.38
2019-05-22T11:23:17.117Z,45.27
2019-05-22T11:24:17.136Z,45.97
2019-05-22T11:25:17.110Z,46.81
2019-05-22T11:26:17.098Z,47.26
2019-05-22T11:27:17.121Z,49.01
2019-05-22T11:28:17.062Z,51.44
2019-05-22T11:29:17.189Z,53.75
2019-05-22T11:30:17.080Z,52.32
2019-05-22T11:31:17.025Z,50.84
2019-05-22T11:32:17.052Z,50.84
2019-05-22T11:33:17.021Z,50.71
2019-05-22T11:34:17.005Z,50.66
2019-05-22T11:35:17.002Z,49.84
2019-05-22T11:36:17.026Z,51.72
2019-05-22T11:37:17.766Z,53.14
2019-05-22T11:38:16.981Z,53.67
2019-05-22T11:39:16.959Z,51.97
2019-05-22T11:40:16.951Z,54.63
2019-05-22T11:41:16.935Z,56.43
2019-05-22T11:42:16.942Z,56.98
2019-05-22T11:43:16.908Z,55.97
2019-05-22T11:44:16.891Z,56.07
2019-05-22T11:45:16.887Z,56.17
2019-05-22T11:46:16.937Z,56.90
2019-05-22T11:47:16.908Z,57.91
2019-05-22T11:48:16.850Z,56.45
2019-05-22T11:49:16.970Z,53.00
2019-05-22T11:50:16.894Z,50.81
2019-05-22T11:51:16.832Z,49.19
2019-05-22T11:52:16.843Z,46.35
2019-05-22T11:53:16.801Z,44.21
2019-05-22T11:54:16.807Z,46.36
2019-05-22T11:55:16.826Z,50.73
2019-05-22T11:56:16.770Z,51.74
2019-05-22T11:57:16.794Z,50.99
2019-05-22T11:58:16.746Z,49.91
2019-05-22T11:59:16.736Z,50.21
2019-05-22T12:00:16.728Z,48.83
2019-05-22T12:01:16.741Z,49.58
2019-05-22T12:02:16.724Z,49.48
2019-05-22T12:03:16.691Z,50.63
2019-05-22T12:04:16.735Z,49.31
2019-05-22T12:05:16.672Z,48.35
2019-05-22T12:06:16.689Z,48.51
2019-05-22T12:07:19.024Z,50.56
2019-05-22T12:08:16.714Z,53.45
2019-05-22T12:09:16.775Z,53.40
2019-05-22T12:10:16.626Z,50.01
2019-05-22T12:11:16.610Z,49.33
2019-05-22T12:12:16.674Z,50.41
2019-05-22T12:13:16.616Z,52.14
2019-05-22T12:14:16.605Z,50.86
2019-05-22T12:15:16.572Z,53.85
2019-05-22T12:16:16.546Z,50.73
2019-05-22T12:17:16.566Z,49.71
2019-05-22T12:18:16.530Z,45.79
2019-05-22T12:19:16.530Z,43.87
2019-05-22T12:20:16.560Z,41.42
2019-05-22T12:21:16.641Z,42.33
2019-05-22T12:22:19.887Z,45.94
2019-05-22T12:23:16.564Z,48.83
2019-05-22T12:24:26.946Z,48.63
2019-05-22T12:25:17.480Z,48.31
2019-05-22T12:26:16.443Z,47.66
2019-05-22T12:27:16.460Z,46.26
2019-05-22T12:28:16.492Z,47.91
2019-05-22T12:29:17.284Z,45.95
2019-05-22T12:30:16.543Z,42.57
2019-05-22T12:31:16.408Z,45.04
2019-05-22T12:32:16.461Z,47.85
2019-05-22T12:33:16.402Z,48.38
2019-05-22T12:34:16.995Z,48.40
2019-05-22T12:35:16.452Z,48.58
2019-05-22T12:36:16.350Z,48.90
2019-05-22T12:37:16.347Z,49.78
2019-05-22T12:38:16.348Z,46.92
2019-05-22T12:39:16.320Z,45.57
2019-05-22T12:40:16.383Z,44.03
2019-05-22T12:41:16.308Z,46.61
2019-05-22T12:42:16.365Z,48.03
2019-05-22T12:43:17.308Z,46.24
2019-05-22T12:44:16.288Z,47.03
2019-05-22T12:45:16.302Z,45.77
2019-05-22T12:46:16.262Z,43.57
2019-05-22T12:47:16.242Z,47.08
2019-05-22T12:48:16.774Z,47.74
2019-05-22T12:49:16.206Z,46.47
2019-05-22T12:50:16.392Z,44.29
2019-05-22T12:51:16.207Z,46.58
2019-05-22T12:52:16.212Z,47.77